createdAt,value
2018-03-17T00:02:09.138Z,14.10
2018-03-17T00:04:36.552Z,11.60
2018-03-17T00:07:03.909Z,10.60
2018-03-17T00:09:31.315Z,9.20
2018-03-17T00:11:59.084Z,9.47
2018-03-17T00:14:26.437Z,13.00
2018-03-17T00:16:53.857Z,12.10
2018-03-17T00:19:21.236Z,10.33
2018-03-17T00:21:48.712Z,11.90
2018-03-17T00:24:16.183Z,8.47
2018-03-17T00:26:43.682Z,9.40
2018-03-17T00:29:11.049Z,9.57
2018-03-17T00:31:38.457Z,10.17
2018-03-17T00:34:05.845Z,9.70
2018-03-17T00:36:33.206Z,10.80
2018-03-17T00:39:00.673Z,8.97
2018-03-17T00:41:28.389Z,10.80
2018-03-17T00:43:55.783Z,7.67
2018-03-17T00:46:23.328Z,8.97
2018-03-17T00:48:50.708Z,12.43
2018-03-17T00:51:18.138Z,9.83
2018-03-17T00:53:45.637Z,9.53
2018-03-17T00:56:13.121Z,9.30
2018-03-17T00:58:40.586Z,6.70
2018-03-17T01:01:07.987Z,10.07
2018-03-17T01:03:35.401Z,9.50
2018-03-17T01:06:02.828Z,10.00
2018-03-17T01:08:30.182Z,9.30
2018-03-17T01:10:57.589Z,6.43
2018-03-17T01:13:25.047Z,8.83
2018-03-17T01:15:52.585Z,8.53
2018-03-17T01:18:19.961Z,8.83
2018-03-17T01:20:47.622Z,7.37
2018-03-17T01:23:15.185Z,7.87
2018-03-17T01:25:42.588Z,11.70
2018-03-17T01:28:10.113Z,23.10
2018-03-17T01:30:37.533Z,14.17
2018-03-17T01:33:05.059Z,12.83
2018-03-17T01:35:32.526Z,12.03
2018-03-17T01:37:59.899Z,13.60
2018-03-17T01:40:27.317Z,8.40
2018-03-17T01:42:54.678Z,7.10
2018-03-17T01:45:22.031Z,8.87
2018-03-17T01:47:49.438Z,10.30
2018-03-17T01:50:16.834Z,9.70
2018-03-17T01:52:44.790Z,12.60
2018-03-17T01:55:12.167Z,7.50
2018-03-17T01:57:39.589Z,10.50
2018-03-17T02:00:06.929Z,8.77
2018-03-17T02:02:34.283Z,9.40
2018-03-17T02:05:01.666Z,8.43
2018-03-17T02:07:29.086Z,9.00
2018-03-17T02:09:56.449Z,11.90
2018-03-17T02:12:23.853Z,10.80
2018-03-17T02:14:51.205Z,11.60
2018-03-17T02:17:18.566Z,9.97
2018-03-17T02:19:45.971Z,9.67
2018-03-17T02:22:13.335Z,10.47
2018-03-17T02:24:40.706Z,9.93
2018-03-17T02:27:08.080Z,10.43
2018-03-17T02:29:35.521Z,14.43
2018-03-17T02:32:02.894Z,13.30
2018-03-17T02:34:30.255Z,11.73
2018-03-17T02:36:57.909Z,10.13
2018-03-17T02:39:25.302Z,12.40
2018-03-17T02:41:52.666Z,9.60
2018-03-17T02:44:20.078Z,10.20
2018-03-17T02:46:47.434Z,8.10
2018-03-17T02:49:14.869Z,9.63
2018-03-17T02:51:42.247Z,9.53
2018-03-17T02:54:09.634Z,11.43
2018-03-17T02:56:37.030Z,8.50
2018-03-17T02:59:04.466Z,8.33
2018-03-17T03:01:31.864Z,11.93
2018-03-17T03:03:59.249Z,10.17
2018-03-17T03:06:26.621Z,9.83
2018-03-17T03:08:54.044Z,8.77
2018-03-17T03:11:21.433Z,10.03
2018-03-17T03:13:48.796Z,9.37
2018-03-17T03:16:16.190Z,9.70
2018-03-17T03:18:43.538Z,7.60
2018-03-17T03:21:10.911Z,6.83
2018-03-17T03:23:38.323Z,9.43
2018-03-17T03:26:05.710Z,8.60
2018-03-17T03:28:33.066Z,11.10
2018-03-17T03:31:00.421Z,10.03
2018-03-17T03:33:27.868Z,10.00
2018-03-17T03:35:55.229Z,7.80
2018-03-17T03:38:22.606Z,7.80
2018-03-17T03:40:50.005Z,11.90
2018-03-17T03:43:17.360Z,9.90
2018-03-17T03:45:44.714Z,11.90
2018-03-17T03:48:12.125Z,8.13
2018-03-17T03:50:39.478Z,8.77
2018-03-17T03:53:06.838Z,9.40
2018-03-17T03:55:34.238Z,10.83
2018-03-17T03:58:01.592Z,7.03
2018-03-17T04:00:28.946Z,10.17
2018-03-17T04:02:56.352Z,7.37
2018-03-17T04:05:23.756Z,7.93
2018-03-17T04:07:51.114Z,10.87
2018-03-17T04:10:18.520Z,8.27
2018-03-17T04:12:45.878Z,9.70
2018-03-17T04:15:13.226Z,8.57
2018-03-17T04:17:40.636Z,8.80
2018-03-17T04:20:08.015Z,8.60
2018-03-17T04:22:35.375Z,8.60
2018-03-17T04:25:02.760Z,7.23
2018-03-17T04:27:30.103Z,8.23
2018-03-17T04:29:57.510Z,11.57
2018-03-17T04:32:24.885Z,10.03
2018-03-17T04:34:52.237Z,12.57
2018-03-17T04:37:19.633Z,8.20
2018-03-17T04:39:47.003Z,9.40
2018-03-17T04:42:14.415Z,10.10
2018-03-17T04:44:41.861Z,9.07
2018-03-17T04:47:09.218Z,7.57
2018-03-17T04:49:36.571Z,8.20
2018-03-17T04:52:03.941Z,8.53
2018-03-17T04:54:31.295Z,10.63
2018-03-17T04:56:58.751Z,7.90
2018-03-17T04:59:26.130Z,12.83
2018-03-17T05:01:53.490Z,9.10
2018-03-17T05:04:20.872Z,10.97
2018-03-17T05:06:48.274Z,6.77
2018-03-17T05:09:15.628Z,11.03
2018-03-17T05:11:42.988Z,10.90
2018-03-17T05:14:10.377Z,9.87
2018-03-17T05:16:37.732Z,10.20
2018-03-17T05:19:05.087Z,8.40
2018-03-17T05:21:32.495Z,9.03
2018-03-17T05:23:59.883Z,8.20
2018-03-17T05:26:27.236Z,8.50
2018-03-17T05:28:54.606Z,8.70
2018-03-17T05:31:22.010Z,7.27
2018-03-17T05:33:49.429Z,9.13
2018-03-17T05:36:16.817Z,9.90
2018-03-17T05:38:44.181Z,10.63
2018-03-17T05:41:11.568Z,8.43
2018-03-17T05:43:39.007Z,7.83
2018-03-17T05:46:06.405Z,7.20
2018-03-17T05:48:33.854Z,6.80
2018-03-17T05:51:01.238Z,8.90
2018-03-17T05:53:28.609Z,8.80
2018-03-17T05:55:55.961Z,8.80
2018-03-17T05:58:23.444Z,8.57
2018-03-17T06:00:50.806Z,11.77
2018-03-17T06:03:18.157Z,6.87
2018-03-17T06:05:45.567Z,7.13
2018-03-17T06:08:12.993Z,7.30
2018-03-17T06:10:40.339Z,6.73
2018-03-17T06:13:07.738Z,12.20
2018-03-17T06:15:35.147Z,13.17
2018-03-17T06:18:02.500Z,6.70
2018-03-17T06:20:29.930Z,11.30
2018-03-17T06:22:57.269Z,8.37
2018-03-17T06:25:24.645Z,10.00
2018-03-17T06:27:52.077Z,9.17
2018-03-17T06:30:19.443Z,10.70
2018-03-17T06:32:46.813Z,11.17
2018-03-17T06:35:14.222Z,11.50
2018-03-17T06:37:41.575Z,9.63
2018-03-17T06:40:08.981Z,7.50
2018-03-17T06:42:36.474Z,7.57
2018-03-17T06:45:03.878Z,7.47
2018-03-17T06:47:31.233Z,9.90
2018-03-17T06:49:58.651Z,9.27
2018-03-17T06:52:29.786Z,11.73
2018-03-17T06:54:57.137Z,18.70
2018-03-17T06:57:24.549Z,8.40
2018-03-17T06:59:51.959Z,8.13
2018-03-17T07:02:19.307Z,8.60
2018-03-17T07:04:46.697Z,8.23
2018-03-17T07:07:14.117Z,13.70
2018-03-17T07:09:41.530Z,10.23
2018-03-17T07:12:09.018Z,8.57
2018-03-17T07:14:36.401Z,6.97
2018-03-17T07:17:03.784Z,9.30
2018-03-17T07:19:31.129Z,9.23
2018-03-17T07:21:58.489Z,9.17
2018-03-17T07:24:25.905Z,7.63
2018-03-17T07:26:53.272Z,10.53
2018-03-17T07:29:20.714Z,10.20
2018-03-17T07:31:48.130Z,9.73
2018-03-17T07:34:15.534Z,9.33
2018-03-17T07:36:46.269Z,10.30
2018-03-17T07:39:13.654Z,8.50
2018-03-17T07:41:41.078Z,10.33
2018-03-17T07:44:08.437Z,10.43
2018-03-17T07:46:35.821Z,7.70
2018-03-17T07:49:03.330Z,8.00
2018-03-17T07:51:30.721Z,8.83
2018-03-17T07:53:58.114Z,6.83
2018-03-17T07:56:25.483Z,16.73
2018-03-17T07:58:52.831Z,9.30
2018-03-17T08:01:20.220Z,8.80
2018-03-17T08:03:47.561Z,9.20
2018-03-17T08:06:14.914Z,9.17
2018-03-17T08:08:42.286Z,8.90
2018-03-17T08:11:09.671Z,12.27
2018-03-17T08:13:37.022Z,15.97
2018-03-17T08:16:04.381Z,6.00
2018-03-17T08:18:31.766Z,9.50
2018-03-17T08:20:59.137Z,13.70
2018-03-17T08:23:26.501Z,9.23
2018-03-17T08:25:53.913Z,9.43
2018-03-17T08:28:21.274Z,10.97
2018-03-17T08:30:48.647Z,9.70
2018-03-17T08:33:16.042Z,11.10
2018-03-17T08:35:43.398Z,12.63
2018-03-17T08:38:11.633Z,11.40
2018-03-17T08:40:39.030Z,10.63
2018-03-17T08:43:06.382Z,11.20
2018-03-17T08:45:33.820Z,10.33
2018-03-17T08:48:01.279Z,11.03
2018-03-17T08:50:28.634Z,10.80
2018-03-17T08:52:55.976Z,9.13
2018-03-17T08:55:23.357Z,8.83
2018-03-17T08:57:50.710Z,8.17
2018-03-17T09:00:18.066Z,9.50
2018-03-17T09:02:45.467Z,17.37
2018-03-17T09:05:13.437Z,9.30
2018-03-17T09:07:40.786Z,12.20
2018-03-17T09:10:08.168Z,12.53
2018-03-17T09:12:35.562Z,16.53
2018-03-17T09:15:02.954Z,14.30
2018-03-17T09:17:30.315Z,9.80
2018-03-17T09:19:57.854Z,9.80
2018-03-17T09:22:25.255Z,9.87
2018-03-17T09:27:32.197Z,15.47
2018-03-17T09:29:59.582Z,12.00
2018-03-17T09:32:28.312Z,11.40
2018-03-17T09:34:55.799Z,11.07
2018-03-17T09:37:23.168Z,14.67
2018-03-17T09:39:50.522Z,10.90
2018-03-17T09:42:17.987Z,11.60
2018-03-17T09:44:45.337Z,13.37
2018-03-17T09:47:12.693Z,11.60
2018-03-17T09:49:40.115Z,12.60
2018-03-17T09:52:07.468Z,11.87
2018-03-17T09:54:34.842Z,12.00
2018-03-17T09:57:02.250Z,12.20
2018-03-17T09:59:29.613Z,12.40
2018-03-17T10:01:56.999Z,12.17
2018-03-17T10:04:24.405Z,10.90
2018-03-17T10:06:51.802Z,14.03
2018-03-17T10:09:19.258Z,10.27
2018-03-17T10:11:46.670Z,13.90
2018-03-17T10:14:14.030Z,10.30
2018-03-17T10:16:41.480Z,9.90
2018-03-17T10:19:08.858Z,11.57
2018-03-17T10:21:36.206Z,10.67
2018-03-17T10:24:03.607Z,10.23
2018-03-17T10:26:30.957Z,9.43
2018-03-17T10:28:58.322Z,11.40
2018-03-17T10:31:25.714Z,10.70
2018-03-17T10:33:53.070Z,11.27
2018-03-17T10:36:20.548Z,12.33
2018-03-17T10:38:47.962Z,12.23
2018-03-17T10:41:15.321Z,11.67
2018-03-17T10:43:42.700Z,12.93
2018-03-17T10:46:10.088Z,9.70
2018-03-17T10:48:37.467Z,9.67
2018-03-17T10:51:04.821Z,11.43
2018-03-17T10:53:32.250Z,10.57
2018-03-17T10:55:59.638Z,12.23
2018-03-17T10:58:27.909Z,11.20
2018-03-17T11:01:10.166Z,9.20
2018-03-17T11:03:37.556Z,11.33
2018-03-17T11:06:04.989Z,11.70
2018-03-17T11:08:32.335Z,9.20
2018-03-17T11:10:59.706Z,11.00
2018-03-17T11:13:27.095Z,12.37
2018-03-17T11:15:54.448Z,9.37
2018-03-17T11:18:21.798Z,9.87
2018-03-17T11:20:49.198Z,14.77
2018-03-17T11:23:16.565Z,9.37
2018-03-17T11:25:43.961Z,12.43
2018-03-17T11:28:11.404Z,11.57
2018-03-17T11:30:38.778Z,9.37
2018-03-17T11:33:06.151Z,8.03
2018-03-17T11:35:33.531Z,10.60
2018-03-17T11:38:00.917Z,13.20
2018-03-17T11:40:28.322Z,12.30
2018-03-17T11:42:55.681Z,11.30
2018-03-17T11:45:23.058Z,12.50
2018-03-17T11:47:50.449Z,12.43
2018-03-17T11:50:17.817Z,12.20
2018-03-17T11:52:45.217Z,13.33
2018-03-17T11:55:12.714Z,14.67
2018-03-17T11:57:40.126Z,12.43
2018-03-17T12:00:07.540Z,11.63
2018-03-17T12:02:34.900Z,11.23
2018-03-17T12:05:02.318Z,13.27
2018-03-17T12:07:29.730Z,10.87
2018-03-17T12:09:57.090Z,12.33
2018-03-17T12:12:24.453Z,12.17
2018-03-17T12:14:51.877Z,13.53
2018-03-17T12:17:19.233Z,10.57
2018-03-17T12:19:46.585Z,16.43
2018-03-17T12:22:13.989Z,10.03
2018-03-17T12:24:41.347Z,13.70
2018-03-17T12:27:08.710Z,10.23
2018-03-17T12:29:36.141Z,10.87
2018-03-17T12:32:03.502Z,11.40
2018-03-17T12:34:30.863Z,10.40
2018-03-17T12:36:58.281Z,15.27
2018-03-17T12:39:25.710Z,13.70
2018-03-17T12:41:53.058Z,11.33
2018-03-17T12:44:20.438Z,10.80
2018-03-17T12:46:47.833Z,12.40
2018-03-17T12:49:15.253Z,8.43
2018-03-17T12:51:42.656Z,13.67
2018-03-17T12:54:10.078Z,12.67
2018-03-17T12:56:37.434Z,11.90
2018-03-17T12:59:04.814Z,14.93
2018-03-17T13:01:32.202Z,9.75
2018-03-17T13:03:59.690Z,13.90
2018-03-17T13:06:27.061Z,13.50
2018-03-17T13:08:54.502Z,11.20
2018-03-17T13:11:21.849Z,9.23
2018-03-17T13:13:49.211Z,11.03
2018-03-17T13:16:16.657Z,11.40
2018-03-17T13:18:44.028Z,10.67
2018-03-17T13:21:11.381Z,9.37
2018-03-17T13:23:38.762Z,12.13
2018-03-17T13:26:06.129Z,10.00
2018-03-17T13:28:33.544Z,12.30
2018-03-17T13:31:00.899Z,10.93
2018-03-17T13:33:28.285Z,10.40
2018-03-17T13:36:01.765Z,10.83
2018-03-17T13:38:29.157Z,9.77
2018-03-17T13:40:56.527Z,8.47
2018-03-17T13:43:23.916Z,13.20
2018-03-17T13:45:51.306Z,9.73
2018-03-17T13:48:18.738Z,10.03
2018-03-17T13:50:46.158Z,11.73
2018-03-17T13:53:13.579Z,11.87
2018-03-17T13:55:40.933Z,9.67
2018-03-17T13:58:08.322Z,12.03
2018-03-17T14:00:35.717Z,9.73
2018-03-17T14:03:03.106Z,10.43
2018-03-17T14:05:30.460Z,11.73
2018-03-17T14:07:57.813Z,11.90
2018-03-17T14:10:25.198Z,11.13
2018-03-17T14:12:52.553Z,10.70
2018-03-17T14:15:19.964Z,10.17
2018-03-17T14:17:47.361Z,11.73
2018-03-17T14:20:14.732Z,10.97
2018-03-17T14:22:42.133Z,11.20
2018-03-17T14:25:10.001Z,11.40
2018-03-17T14:27:37.359Z,11.83
2018-03-17T14:30:04.782Z,13.47
2018-03-17T14:32:32.157Z,11.13
2018-03-17T14:34:59.508Z,12.80
2018-03-17T14:37:26.902Z,11.93
2018-03-17T14:39:54.264Z,14.50
2018-03-17T14:42:21.639Z,16.50
2018-03-17T14:44:49.029Z,16.57
2018-03-17T14:47:16.401Z,13.83
2018-03-17T14:49:43.759Z,11.80
2018-03-17T14:52:11.204Z,12.60
2018-03-17T14:54:38.630Z,11.83
2018-03-17T14:57:06.030Z,12.20
2018-03-17T14:59:33.436Z,13.97
2018-03-17T15:02:00.819Z,14.10
2018-03-17T15:04:28.181Z,12.67
2018-03-17T15:06:55.582Z,12.63
2018-03-17T15:09:22.980Z,12.50
2018-03-17T15:11:50.335Z,15.90
2018-03-17T15:14:17.738Z,11.10
2018-03-17T15:16:45.105Z,12.43
2018-03-17T15:19:12.463Z,14.27
2018-03-17T15:21:39.880Z,17.27
2018-03-17T15:24:07.237Z,12.60
2018-03-17T15:26:34.598Z,10.37
2018-03-17T15:29:02.020Z,11.50
2018-03-17T15:31:29.418Z,10.90
2018-03-17T15:33:56.831Z,16.10
2018-03-17T15:39:01.907Z,12.17
2018-03-17T15:41:29.323Z,13.03
2018-03-17T15:43:56.723Z,13.53
2018-03-17T15:46:24.104Z,12.90
2018-03-17T15:48:51.516Z,17.23
2018-03-17T15:51:19.091Z,16.73
2018-03-17T15:53:46.445Z,13.03
2018-03-17T15:56:13.802Z,12.90
2018-03-17T16:01:07.983Z,11.67
2018-03-17T16:03:35.341Z,12.83
2018-03-17T16:06:02.753Z,14.33
2018-03-17T16:08:30.150Z,12.23
2018-03-17T16:10:57.517Z,12.33
2018-03-17T16:13:24.918Z,15.60
2018-03-17T16:15:52.273Z,11.50
2018-03-17T16:18:19.645Z,13.80
2018-03-17T16:20:47.041Z,15.83
2018-03-17T16:23:14.447Z,15.67
2018-03-17T16:25:41.827Z,13.27
2018-03-17T16:28:09.214Z,14.30
2018-03-17T16:30:36.622Z,18.57
2018-03-17T16:33:03.983Z,17.10
2018-03-17T16:35:31.342Z,19.50
2018-03-17T16:37:58.727Z,16.50
2018-03-17T16:40:26.088Z,15.00
2018-03-17T16:42:53.463Z,13.00
2018-03-17T16:45:20.869Z,15.57
2018-03-17T16:47:48.229Z,16.93
2018-03-17T16:50:15.573Z,17.07
2018-03-17T16:52:42.970Z,16.60
2018-03-17T16:55:10.328Z,15.23
2018-03-17T16:57:37.680Z,14.73
2018-03-17T17:00:05.065Z,14.33
2018-03-17T17:02:32.455Z,15.37
2018-03-17T17:04:59.829Z,16.00
2018-03-17T17:07:27.188Z,19.93
2018-03-17T17:09:54.582Z,15.23
2018-03-17T17:12:21.952Z,14.70
2018-03-17T17:14:49.321Z,18.63
2018-03-17T17:17:16.735Z,14.27
2018-03-17T17:19:44.097Z,14.60
2018-03-17T17:22:11.453Z,15.83
2018-03-17T17:24:38.851Z,18.33
2018-03-17T17:27:06.206Z,16.00
2018-03-17T17:29:33.564Z,15.97
2018-03-17T17:32:00.944Z,18.03
2018-03-17T17:34:28.402Z,13.23
2018-03-17T17:36:55.820Z,17.40
2018-03-17T17:39:23.189Z,14.07
2018-03-17T17:41:50.602Z,13.37
2018-03-17T17:44:17.957Z,16.23
2018-03-17T17:46:45.316Z,13.47
2018-03-17T17:49:12.706Z,14.87
2018-03-17T17:51:40.087Z,16.37
2018-03-17T17:54:07.569Z,16.67
2018-03-17T17:56:34.954Z,17.80
2018-03-17T17:59:02.325Z,15.83
2018-03-17T18:01:31.645Z,18.00
2018-03-17T18:03:59.024Z,15.40
2018-03-17T18:06:26.445Z,17.80
2018-03-17T18:08:53.829Z,24.37
2018-03-17T18:11:21.286Z,19.83
2018-03-17T18:13:48.673Z,18.67
2018-03-17T18:16:16.094Z,16.70
2018-03-17T18:18:43.461Z,15.13
2018-03-17T18:21:10.835Z,18.33
2018-03-17T18:23:38.235Z,15.13
2018-03-17T18:26:05.594Z,20.17
2018-03-17T18:28:34.002Z,16.90
2018-03-17T18:31:01.391Z,13.67
2018-03-17T18:33:28.747Z,15.23
2018-03-17T18:35:56.137Z,18.40
2018-03-17T18:38:23.567Z,15.17
2018-03-17T18:40:50.977Z,19.20
2018-03-17T18:43:18.360Z,17.20
2018-03-17T18:45:45.762Z,20.80
2018-03-17T18:48:13.119Z,17.47
2018-03-17T18:50:40.477Z,17.57
2018-03-17T18:53:07.877Z,16.40
2018-03-17T18:55:35.232Z,21.17
2018-03-17T18:58:02.764Z,13.73
2018-03-17T19:00:30.126Z,13.80
2018-03-17T19:02:57.497Z,17.77
2018-03-17T19:05:24.883Z,17.77
2018-03-17T19:07:52.323Z,16.20
2018-03-17T19:10:19.653Z,14.80
2018-03-17T19:12:47.023Z,16.43
2018-03-17T19:15:14.408Z,20.33
2018-03-17T19:17:41.758Z,18.53
2018-03-17T19:20:09.105Z,15.97
2018-03-17T19:22:36.493Z,22.73
2018-03-17T19:25:03.869Z,18.40
2018-03-17T19:27:31.273Z,15.90
2018-03-17T19:29:58.685Z,17.80
2018-03-17T19:32:26.073Z,16.93
2018-03-17T19:34:53.491Z,19.20
2018-03-17T19:37:20.930Z,15.30
2018-03-17T19:39:48.297Z,17.17
2018-03-17T19:42:15.687Z,15.90
2018-03-17T19:44:43.059Z,19.20
2018-03-17T19:47:10.466Z,16.13
2018-03-17T19:49:37.938Z,16.70
2018-03-17T19:52:05.297Z,15.73
2018-03-17T19:54:32.722Z,17.67
2018-03-17T19:57:00.081Z,14.17
2018-03-17T19:59:27.442Z,15.13
2018-03-17T20:01:54.871Z,14.93
2018-03-17T20:04:22.270Z,13.63
2018-03-17T20:06:49.675Z,17.87
2018-03-17T20:09:17.082Z,16.47
2018-03-17T20:11:44.452Z,20.53
2018-03-17T20:14:11.810Z,15.63
2018-03-17T20:16:39.213Z,14.90
2018-03-17T20:19:06.566Z,14.70
2018-03-17T20:21:33.913Z,16.07
2018-03-17T20:24:01.350Z,18.07
2018-03-17T20:26:28.757Z,18.90
2018-03-17T20:28:56.110Z,15.53
2018-03-17T20:31:23.528Z,14.07
2018-03-17T20:33:50.901Z,18.60
2018-03-17T20:36:18.274Z,16.83
2018-03-17T20:38:45.686Z,15.90
2018-03-17T20:41:13.041Z,16.53
2018-03-17T20:43:40.499Z,12.70
2018-03-17T20:46:08.021Z,17.07
2018-03-17T20:48:35.395Z,20.07
2018-03-17T20:51:02.780Z,16.77
2018-03-17T20:53:30.297Z,17.70
2018-03-17T20:55:57.681Z,18.00
2018-03-17T20:58:25.041Z,29.27
2018-03-17T21:00:52.446Z,15.90
2018-03-17T21:03:19.797Z,19.73
2018-03-17T21:05:47.168Z,25.77
2018-03-17T21:08:14.545Z,18.53
2018-03-17T21:10:41.933Z,18.43
2018-03-17T21:13:09.342Z,16.07
2018-03-17T21:15:36.720Z,17.47
2018-03-17T21:18:04.089Z,14.10
2018-03-17T21:20:31.522Z,16.13
2018-03-17T21:22:58.889Z,18.03
2018-03-17T21:25:26.261Z,12.40
2018-03-17T21:27:53.650Z,23.50
2018-03-17T21:30:21.006Z,17.50
2018-03-17T21:32:48.389Z,14.60
2018-03-17T21:35:15.769Z,15.47
2018-03-17T21:37:43.144Z,19.57
2018-03-17T21:40:10.549Z,22.87
2018-03-17T21:42:38.058Z,22.67
2018-03-17T21:45:05.405Z,20.73
2018-03-17T21:47:32.789Z,16.70
2018-03-17T21:50:00.158Z,17.77
2018-03-17T21:52:27.557Z,18.07
2018-03-17T21:54:54.913Z,20.10
2018-03-17T21:57:22.318Z,26.27
2018-03-17T21:59:49.721Z,15.50
2018-03-17T22:02:17.110Z,17.87
2018-03-17T22:04:44.540Z,15.50
2018-03-17T22:07:11.934Z,21.77
2018-03-17T22:09:39.325Z,15.97
2018-03-17T22:12:10.366Z,15.90
2018-03-17T22:14:37.773Z,20.77
2018-03-17T22:17:05.140Z,16.33
2018-03-17T22:19:32.500Z,18.70
2018-03-17T22:22:00.485Z,29.27
2018-03-17T22:24:27.864Z,22.23
2018-03-17T22:26:55.290Z,20.40
2018-03-17T22:29:22.684Z,16.80
2018-03-17T22:31:50.095Z,18.43
2018-03-17T22:34:17.499Z,13.40
2018-03-17T22:36:44.854Z,16.83
2018-03-17T22:39:12.214Z,17.07
2018-03-17T22:41:39.625Z,25.50
2018-03-17T22:44:07.064Z,23.83
2018-03-17T22:46:34.429Z,16.30
2018-03-17T22:49:01.903Z,21.17
2018-03-17T22:51:29.213Z,21.80
2018-03-17T22:53:56.578Z,22.03
2018-03-17T22:56:23.981Z,18.80
2018-03-17T22:58:51.369Z,25.93
2018-03-17T23:01:18.750Z,35.33
2018-03-17T23:03:46.205Z,22.00
2018-03-17T23:06:13.584Z,15.37
2018-03-17T23:08:41.122Z,27.93
2018-03-17T23:11:08.482Z,16.90
2018-03-17T23:13:35.886Z,19.57
2018-03-17T23:16:03.246Z,20.57
2018-03-17T23:18:30.634Z,14.60
2018-03-17T23:20:58.013Z,16.77
2018-03-17T23:23:25.373Z,18.33
2018-03-17T23:25:52.729Z,15.63
2018-03-17T23:28:20.126Z,21.70
2018-03-17T23:30:47.475Z,27.63
2018-03-17T23:33:14.828Z,15.07
2018-03-17T23:35:42.250Z,27.50
2018-03-17T23:38:09.662Z,20.23
2018-03-17T23:40:37.023Z,24.37
2018-03-17T23:43:04.440Z,15.87
2018-03-17T23:45:31.794Z,20.27
2018-03-17T23:47:59.200Z,17.50
2018-03-17T23:50:26.594Z,19.93
2018-03-17T23:52:53.946Z,21.33
2018-03-17T23:55:21.332Z,25.47
2018-03-17T23:57:48.752Z,18.70
